sensor_id;sensor_type;location;lat;lon;timestamp;P1;P2;P0
13030;PMS7003;6582;54.644;9.760;2022-12-15T00:00:01;386.5;386.2;
13030;PMS7003;6582;54.644;9.760;2022-12-15T00:05:01;421.6;421.1;
13030;PMS7003;6582;54.644;9.760;2022-12-15T00:10:01;451.8;450.9;
13030;PMS7003;6582;54.644;9.760;2022-12-15T00:15:01;467.1;465.8;
13030;PMS7003;6582;54.644;9.760;2022-12-15T00:20:02;459.6;458.3;
13030;PMS7003;6582;54.644;9.760;2022-12-15T00:25:02;454.8;453.1;
13030;PMS7003;6582;54.644;9.760;2022-12-15T00:30:02;448.8;447.3;
13030;PMS7003;6582;54.644;9.760;2022-12-15T00:35:02;432.5;431.5;
13030;PMS7003;6582;54.644;9.760;2022-12-15T00:40:01;434.9;434.5;
13030;PMS7003;6582;54.644;9.760;2022-12-15T00:45:01;428.4;428.0;
13030;PMS7003;6582;54.644;9.760;2022-12-15T00:50:01;433.0;433.0;
13030;PMS7003;6582;54.644;9.760;2022-12-15T00:55:02;430.7;430.7;
13030;PMS7003;6582;54.644;9.760;2022-12-15T01:00:02;434.2;434.1;
13030;PMS7003;6582;54.644;9.760;2022-12-15T01:05:01;431.6;431.5;
13030;PMS7003;6582;54.644;9.760;2022-12-15T01:10:02;435.2;434.7;
13030;PMS7003;6582;54.644;9.760;2022-12-15T01:15:01;426.9;426.4;
13030;PMS7003;6582;54.644;9.760;2022-12-15T01:20:01;432.0;431.3;
13030;PMS7003;6582;54.644;9.760;2022-12-15T01:25:01;429.1;428.5;
13030;PMS7003;6582;54.644;9.760;2022-12-15T01:30:01;428.3;427.4;
13030;PMS7003;6582;54.644;9.760;2022-12-15T01:35:02;409.7;408.9;
13030;PMS7003;6582;54.644;9.760;2022-12-15T01:40:02;412.6;411.4;
13030;PMS7003;6582;54.644;9.760;2022-12-15T02:05:02;399.6;398.4;
13030;PMS7003;6582;54.644;9.760;2022-12-15T02:10:02;374.2;373.6;
13030;PMS7003;6582;54.644;9.760;2022-12-15T02:15:08;434.7;433.5;
13030;PMS7003;6582;54.644;9.760;2022-12-15T02:20:22;423.6;422.3;
13030;PMS7003;6582;54.644;9.760;2022-12-15T02:35:04;375.2;374.8;
13030;PMS7003;6582;54.644;9.760;2022-12-15T02:40:03;433.8;433.6;
13030;PMS7003;6582;54.644;9.760;2022-12-15T02:45:04;413.7;412.9;
13030;PMS7003;6582;54.644;9.760;2022-12-15T02:50:07;439.4;438.3;
13030;PMS7003;6582;54.644;9.760;2022-12-15T02:55:09;455.9;454.7;
13030;PMS7003;6582;54.644;9.760;2022-12-15T03:00:04;442.9;441.2;
13030;PMS7003;6582;54.644;9.760;2022-12-15T03:05:02;438.2;436.2;
13030;PMS7003;6582;54.644;9.760;2022-12-15T03:10:03;428.3;426.0;
13030;PMS7003;6582;54.644;9.760;2022-12-15T03:15:02;389.6;387.2;
13030;PMS7003;6582;54.644;9.760;2022-12-15T03:20:02;371.7;369.3;
13030;PMS7003;6582;54.644;9.760;2022-12-15T03:25:07;414.8;412.6;
13030;PMS7003;6582;54.644;9.760;2022-12-15T03:30:02;407.5;404.6;
13030;PMS7003;6582;54.644;9.760;2022-12-15T03:35:04;420.2;418.0;
13030;PMS7003;6582;54.644;9.760;2022-12-15T03:40:03;428.7;427.0;
13030;PMS7003;6582;54.644;9.760;2022-12-15T03:45:02;409.1;407.3;
13030;PMS7003;6582;54.644;9.760;2022-12-15T03:50:02;367.6;365.5;
13030;PMS7003;6582;54.644;9.760;2022-12-15T03:55:03;357.8;356.4;
13030;PMS7003;6582;54.644;9.760;2022-12-15T04:00:03;354.7;352.5;
13030;PMS7003;6582;54.644;9.760;2022-12-15T04:05:02;358.9;356.4;
13030;PMS7003;6582;54.644;9.760;2022-12-15T04:10:03;373.7;371.4;
13030;PMS7003;6582;54.644;9.760;2022-12-15T04:15:08;396.4;394.6;
13030;PMS7003;6582;54.644;9.760;2022-12-15T04:20:02;406.3;404.5;
13030;PMS7003;6582;54.644;9.760;2022-12-15T04:25:18;421.3;419.7;
13030;PMS7003;6582;54.644;9.760;2022-12-15T04:30:02;429.0;427.5;
13030;PMS7003;6582;54.644;9.760;2022-12-15T04:35:03;419.3;418.0;
13030;PMS7003;6582;54.644;9.760;2022-12-15T04:40:02;398.3;397.2;
13030;PMS7003;6582;54.644;9.760;2022-12-15T04:45:02;378.8;377.7;
13030;PMS7003;6582;54.644;9.760;2022-12-15T04:50:02;350.9;350.2;
13030;PMS7003;6582;54.644;9.760;2022-12-15T04:55:02;326.5;326.0;
13030;PMS7003;6582;54.644;9.760;2022-12-15T05:00:02;323.1;322.3;
13030;PMS7003;6582;54.644;9.760;2022-12-15T05:10:14;335.1;334.2;
13030;PMS7003;6582;54.644;9.760;2022-12-15T05:15:03;336.2;335.6;
13030;PMS7003;6582;54.644;9.760;2022-12-15T05:20:02;342.5;341.5;
13030;PMS7003;6582;54.644;9.760;2022-12-15T05:25:07;344.8;344.0;
13030;PMS7003;6582;54.644;9.760;2022-12-15T05:30:02;363.3;363.0;
13030;PMS7003;6582;54.644;9.760;2022-12-15T05:35:02;350.1;349.3;
13030;PMS7003;6582;54.644;9.760;2022-12-15T05:40:02;362.8;362.1;
13030;PMS7003;6582;54.644;9.760;2022-12-15T05:45:07;370.6;370.2;
13030;PMS7003;6582;54.644;9.760;2022-12-15T05:50:02;373.8;373.2;
13030;PMS7003;6582;54.644;9.760;2022-12-15T05:55:03;362.5;361.1;
13030;PMS7003;6582;54.644;9.760;2022-12-15T06:00:03;408.0;407.0;
13030;PMS7003;6582;54.644;9.760;2022-12-15T06:05:02;459.8;458.4;
13030;PMS7003;6582;54.644;9.760;2022-12-15T06:10:02;482.2;480.5;
13030;PMS7003;6582;54.644;9.760;2022-12-15T06:15:02;534.8;532.9;
13030;PMS7003;6582;54.644;9.760;2022-12-15T06:20:02;568.6;567.6;
13030;PMS7003;6582;54.644;9.760;2022-12-15T06:25:02;546.9;545.3;
13030;PMS7003;6582;54.644;9.760;2022-12-15T06:30:02;500.8;499.2;
13030;PMS7003;6582;54.644;9.760;2022-12-15T06:35:02;483.5;482.2;
13030;PMS7003;6582;54.644;9.760;2022-12-15T06:40:02;433.4;432.3;
13030;PMS7003;6582;54.644;9.760;2022-12-15T06:45:02;405.5;403.8;
13030;PMS7003;6582;54.644;9.760;2022-12-15T06:50:03;391.1;390.0;
13030;PMS7003;6582;54.644;9.760;2022-12-15T06:55:04;394.0;393.0;
13030;PMS7003;6582;54.644;9.760;2022-12-15T07:00:02;386.3;385.0;
13030;PMS7003;6582;54.644;9.760;2022-12-15T07:05:02;383.7;382.5;
13030;PMS7003;6582;54.644;9.760;2022-12-15T07:10:02;401.9;400.8;
13030;PMS7003;6582;54.644;9.760;2022-12-15T07:15:02;413.2;412.1;
13030;PMS7003;6582;54.644;9.760;2022-12-15T07:20:02;404.4;403.4;
13030;PMS7003;6582;54.644;9.760;2022-12-15T07:25:02;423.3;422.4;
13030;PMS7003;6582;54.644;9.760;2022-12-15T07:30:03;433.2;431.5;
13030;PMS7003;6582;54.644;9.760;2022-12-15T07:35:02;426.5;425.2;
13030;PMS7003;6582;54.644;9.760;2022-12-15T07:40:03;431.8;430.2;
13030;PMS7003;6582;54.644;9.760;2022-12-15T07:45:02;454.6;453.2;
13030;PMS7003;6582;54.644;9.760;2022-12-15T07:50:07;417.5;416.0;
13030;PMS7003;6582;54.644;9.760;2022-12-15T07:55:01;428.9;428.2;
13030;PMS7003;6582;54.644;9.760;2022-12-15T08:00:07;430.4;429.8;
13030;PMS7003;6582;54.644;9.760;2022-12-15T08:05:02;429.5;429.2;
13030;PMS7003;6582;54.644;9.760;2022-12-15T08:10:03;425.8;425.4;
13030;PMS7003;6582;54.644;9.760;2022-12-15T08:15:01;475.8;475.6;
13030;PMS7003;6582;54.644;9.760;2022-12-15T08:20:10;481.1;480.6;
13030;PMS7003;6582;54.644;9.760;2022-12-15T08:25:02;486.1;485.6;
13030;PMS7003;6582;54.644;9.760;2022-12-15T08:30:02;485.3;484.6;
13030;PMS7003;6582;54.644;9.760;2022-12-15T08:35:02;458.0;457.1;
13030;PMS7003;6582;54.644;9.760;2022-12-15T08:40:07;436.6;435.8;
13030;PMS7003;6582;54.644;9.760;2022-12-15T08:45:02;426.5;425.9;
13030;PMS7003;6582;54.644;9.760;2022-12-15T08:50:02;422.0;420.8;
13030;PMS7003;6582;54.644;9.760;2022-12-15T08:55:08;415.8;414.8;
13030;PMS7003;6582;54.644;9.760;2022-12-15T09:00:02;444.4;443.6;
13030;PMS7003;6582;54.644;9.760;2022-12-15T09:05:02;457.4;456.3;
13030;PMS7003;6582;54.644;9.760;2022-12-15T09:10:01;466.9;465.6;
13030;PMS7003;6582;54.644;9.760;2022-12-15T09:15:02;477.8;477.1;
13030;PMS7003;6582;54.644;9.760;2022-12-15T09:20:02;487.2;486.1;
13030;PMS7003;6582;54.644;9.760;2022-12-15T09:25:07;494.4;493.5;
13030;PMS7003;6582;54.644;9.760;2022-12-15T09:30:03;497.0;496.4;
13030;PMS7003;6582;54.644;9.760;2022-12-15T09:35:06;498.9;498.1;
13030;PMS7003;6582;54.644;9.760;2022-12-15T09:40:02;488.7;487.9;
13030;PMS7003;6582;54.644;9.760;2022-12-15T09:45:04;493.2;492.8;
13030;PMS7003;6582;54.644;9.760;2022-12-15T09:50:03;480.6;480.1;
13030;PMS7003;6582;54.644;9.760;2022-12-15T09:55:03;482.8;481.8;
13030;PMS7003;6582;54.644;9.760;2022-12-15T10:00:08;465.5;463.9;
13030;PMS7003;6582;54.644;9.760;2022-12-15T10:05:04;459.8;458.1;
13030;PMS7003;6582;54.644;9.760;2022-12-15T10:10:05;435.8;433.8;
13030;PMS7003;6582;54.644;9.760;2022-12-15T10:15:06;430.2;428.0;
13030;PMS7003;6582;54.644;9.760;2022-12-15T10:20:04;393.8;391.8;
13030;PMS7003;6582;54.644;9.760;2022-12-15T10:25:18;392.2;390.9;
13030;PMS7003;6582;54.644;9.760;2022-12-15T10:30:03;410.2;408.3;
13030;PMS7003;6582;54.644;9.760;2022-12-15T10:35:06;396.8;394.8;
13030;PMS7003;6582;54.644;9.760;2022-12-15T10:40:06;370.9;368.3;
13030;PMS7003;6582;54.644;9.760;2022-12-15T10:45:01;340.9;336.1;
13030;PMS7003;6582;54.644;9.760;2022-12-15T10:50:15;293.6;286.2;
13030;PMS7003;6582;54.644;9.760;2022-12-15T10:55:12;233.0;224.8;
13030;PMS7003;6582;54.644;9.760;2022-12-15T11:15:01;301.2;300.6;
13030;PMS7003;6582;54.644;9.760;2022-12-15T11:20:05;249.3;241.6;
13030;PMS7003;6582;54.644;9.760;2022-12-15T11:45:05;207.6;196.6;
13030;PMS7003;6582;54.644;9.760;2022-12-15T11:50:05;224.3;216.7;
13030;PMS7003;6582;54.644;9.760;2022-12-15T12:15:06;220.2;209.2;
13030;PMS7003;6582;54.644;9.760;2022-12-15T12:20:15;219.2;210.3;
13030;PMS7003;6582;54.644;9.760;2022-12-15T12:25:02;240.3;233.3;
13030;PMS7003;6582;54.644;9.760;2022-12-15T12:30:10;233.7;224.0;
13030;PMS7003;6582;54.644;9.760;2022-12-15T12:55:03;163.8;148.0;
13030;PMS7003;6582;54.644;9.760;2022-12-15T13:00:14;174.1;161.6;
13030;PMS7003;6582;54.644;9.760;2022-12-15T13:25:24;178.2;162.0;
13030;PMS7003;6582;54.644;9.760;2022-12-15T13:45:04;229.6;220.2;
13030;PMS7003;6582;54.644;9.760;2022-12-15T14:25:10;251.4;244.8;
13030;PMS7003;6582;54.644;9.760;2022-12-15T14:30:10;263.5;257.6;
13030;PMS7003;6582;54.644;9.760;2022-12-15T14:35:02;240.9;234.0;
13030;PMS7003;6582;54.644;9.760;2022-12-15T14:40:02;230.2;220.9;
13030;PMS7003;6582;54.644;9.760;2022-12-15T14:45:01;229.0;219.1;
13030;PMS7003;6582;54.644;9.760;2022-12-15T14:50:03;236.9;227.1;
13030;PMS7003;6582;54.644;9.760;2022-12-15T15:15:03;220.6;212.4;
13030;PMS7003;6582;54.644;9.760;2022-12-15T15:20:03;242.0;236.0;
13030;PMS7003;6582;54.644;9.760;2022-12-15T15:25:18;274.6;270.0;
13030;PMS7003;6582;54.644;9.760;2022-12-15T15:45:01;379.0;379.0;
13030;PMS7003;6582;54.644;9.760;2022-12-15T15:50:01;427.9;427.6;
13030;PMS7003;6582;54.644;9.760;2022-12-15T15:55:01;410.1;409.3;
13030;PMS7003;6582;54.644;9.760;2022-12-15T16:00:05;391.8;390.3;
13030;PMS7003;6582;54.644;9.760;2022-12-15T16:05:01;388.9;387.5;
13030;PMS7003;6582;54.644;9.760;2022-12-15T16:10:12;379.9;378.5;
13030;PMS7003;6582;54.644;9.760;2022-12-15T16:15:11;360.4;359.1;
13030;PMS7003;6582;54.644;9.760;2022-12-15T16:20:01;355.1;353.3;
13030;PMS7003;6582;54.644;9.760;2022-12-15T16:25:01;357.9;356.3;
13030;PMS7003;6582;54.644;9.760;2022-12-15T16:30:04;357.5;355.4;
13030;PMS7003;6582;54.644;9.760;2022-12-15T16:35:02;371.9;368.5;
13030;PMS7003;6582;54.644;9.760;2022-12-15T16:40:01;368.5;364.5;
13030;PMS7003;6582;54.644;9.760;2022-12-15T16:45:14;366.2;363.2;
13030;PMS7003;6582;54.644;9.760;2022-12-15T16:50:01;364.7;361.4;
13030;PMS7003;6582;54.644;9.760;2022-12-15T16:55:15;360.7;358.0;
13030;PMS7003;6582;54.644;9.760;2022-12-15T17:00:08;346.1;344.2;
13030;PMS7003;6582;54.644;9.760;2022-12-15T17:05:01;345.1;343.8;
13030;PMS7003;6582;54.644;9.760;2022-12-15T17:10:01;347.3;346.0;
13030;PMS7003;6582;54.644;9.760;2022-12-15T17:15:04;335.8;334.9;
13030;PMS7003;6582;54.644;9.760;2022-12-15T17:20:16;321.4;320.2;
13030;PMS7003;6582;54.644;9.760;2022-12-15T17:45:05;293.8;292.0;
13030;PMS7003;6582;54.644;9.760;2022-12-15T17:50:06;283.9;282.4;
13030;PMS7003;6582;54.644;9.760;2022-12-15T17:55:02;286.0;284.1;
13030;PMS7003;6582;54.644;9.760;2022-12-15T18:00:05;285.6;283.7;
13030;PMS7003;6582;54.644;9.760;2022-12-15T18:05:01;281.0;279.3;
13030;PMS7003;6582;54.644;9.760;2022-12-15T18:10:02;285.8;284.5;
13030;PMS7003;6582;54.644;9.760;2022-12-15T18:15:04;293.5;292.1;
13030;PMS7003;6582;54.644;9.760;2022-12-15T18:20:01;296.8;295.8;
13030;PMS7003;6582;54.644;9.760;2022-12-15T18:25:02;305.2;303.0;
13030;PMS7003;6582;54.644;9.760;2022-12-15T18:30:12;327.8;325.4;
13030;PMS7003;6582;54.644;9.760;2022-12-15T18:35:04;333.4;331.0;
13030;PMS7003;6582;54.644;9.760;2022-12-15T18:40:11;347.3;345.2;
13030;PMS7003;6582;54.644;9.760;2022-12-15T18:45:02;356.2;353.7;
13030;PMS7003;6582;54.644;9.760;2022-12-15T18:50:02;362.3;360.6;
13030;PMS7003;6582;54.644;9.760;2022-12-15T18:55:02;353.5;351.9;
13030;PMS7003;6582;54.644;9.760;2022-12-15T19:15:04;319.2;317.6;
13030;PMS7003;6582;54.644;9.760;2022-12-15T19:20:02;282.1;277.8;
13030;PMS7003;6582;54.644;9.760;2022-12-15T19:25:02;277.1;274.2;
13030;PMS7003;6582;54.644;9.760;2022-12-15T19:30:14;271.8;269.2;
13030;PMS7003;6582;54.644;9.760;2022-12-15T19:35:01;265.5;263.0;
13030;PMS7003;6582;54.644;9.760;2022-12-15T19:40:02;245.4;241.9;
13030;PMS7003;6582;54.644;9.760;2022-12-15T19:45:17;243.4;241.4;
13030;PMS7003;6582;54.644;9.760;2022-12-15T20:05:07;213.2;194.0;
13030;PMS7003;6582;54.644;9.760;2022-12-15T20:10:01;202.5;185.9;
13030;PMS7003;6582;54.644;9.760;2022-12-15T20:15:05;202.3;186.3;
13030;PMS7003;6582;54.644;9.760;2022-12-15T20:20:03;200.7;185.2;
13030;PMS7003;6582;54.644;9.760;2022-12-15T20:25:01;202.9;189.8;
13030;PMS7003;6582;54.644;9.760;2022-12-15T20:30:01;228.5;218.7;
13030;PMS7003;6582;54.644;9.760;2022-12-15T20:35:01;249.4;242.2;
13030;PMS7003;6582;54.644;9.760;2022-12-15T20:40:01;259.9;255.5;
13030;PMS7003;6582;54.644;9.760;2022-12-15T20:45:01;289.6;287.4;
13030;PMS7003;6582;54.644;9.760;2022-12-15T20:50:05;319.4;317.3;
13030;PMS7003;6582;54.644;9.760;2022-12-15T20:55:05;327.3;325.4;
13030;PMS7003;6582;54.644;9.760;2022-12-15T21:00:01;341.2;339.0;
13030;PMS7003;6582;54.644;9.760;2022-12-15T21:05:08;366.4;364.5;
13030;PMS7003;6582;54.644;9.760;2022-12-15T21:10:01;390.4;388.9;
13030;PMS7003;6582;54.644;9.760;2022-12-15T21:35:01;419.0;415.2;
13030;PMS7003;6582;54.644;9.760;2022-12-15T21:40:01;383.4;381.3;
13030;PMS7003;6582;54.644;9.760;2022-12-15T21:45:04;380.1;378.7;
13030;PMS7003;6582;54.644;9.760;2022-12-15T21:50:01;373.9;372.9;
13030;PMS7003;6582;54.644;9.760;2022-12-15T21:55:01;397.4;396.6;
13030;PMS7003;6582;54.644;9.760;2022-12-15T22:00:04;391.0;391.0;
13030;PMS7003;6582;54.644;9.760;2022-12-15T22:05:01;400.2;400.2;
13030;PMS7003;6582;54.644;9.760;2022-12-15T22:15:15;406.7;406.4;
13030;PMS7003;6582;54.644;9.760;2022-12-15T22:20:04;384.5;384.2;
13030;PMS7003;6582;54.644;9.760;2022-12-15T22:25:16;387.0;386.7;
13030;PMS7003;6582;54.644;9.760;2022-12-15T22:30:01;382.1;381.9;
13030;PMS7003;6582;54.644;9.760;2022-12-15T22:35:04;386.9;386.7;
13030;PMS7003;6582;54.644;9.760;2022-12-15T22:40:01;386.6;386.4;
13030;PMS7003;6582;54.644;9.760;2022-12-15T22:45:03;395.7;395.5;
13030;PMS7003;6582;54.644;9.760;2022-12-15T22:50:01;388.7;388.5;
13030;PMS7003;6582;54.644;9.760;2022-12-15T22:55:11;398.5;398.3;
13030;PMS7003;6582;54.644;9.760;2022-12-15T23:00:04;408.7;408.4;
13030;PMS7003;6582;54.644;9.760;2022-12-15T23:05:01;415.1;414.8;
13030;PMS7003;6582;54.644;9.760;2022-12-15T23:10:02;406.2;405.9;
13030;PMS7003;6582;54.644;9.760;2022-12-15T23:15:02;410.3;410.0;
13030;PMS7003;6582;54.644;9.760;2022-12-15T23:20:01;412.0;411.8;
13030;PMS7003;6582;54.644;9.760;2022-12-15T23:25:01;395.3;395.3;
13030;PMS7003;6582;54.644;9.760;2022-12-15T23:30:02;379.8;379.6;
13030;PMS7003;6582;54.644;9.760;2022-12-15T23:35:01;382.5;382.3;
13030;PMS7003;6582;54.644;9.760;2022-12-15T23:40:01;397.6;397.4;
13030;PMS7003;6582;54.644;9.760;2022-12-15T23:45:02;388.5;388.3;
13030;PMS7003;6582;54.644;9.760;2022-12-15T23:50:02;410.8;410.6;
13030;PMS7003;6582;54.644;9.760;2022-12-15T23:55:02;419.2;419.2;
